Historyczne dane pomiarowe

Dodano dane terminowe – wersja testowa.

Dane z okresu 1951-2019

Wersja bazy: 1.34 [2019-03-16, lista zmian], aktualizacja planowana na 2019-04-15

Dane meteo z obszaru Polski uzyskane na podstawie danych udostępnionych przez Instytut Meteorologii i Gospodarki Wodnej – Państwowy Instytut Badawczy.

 

Wybierz Datę:    

       

TemperaturaWilgotnośćWiatrCiśnienieOpadyŚniegCzas trwania zjawisk
 Stacja t tx tn tng RH VA  wxwx mslp ppp RRR   cm mm wxwxwxwxwxwxwx
1956-11-09 -1.7 2.1 -4.3 -5.6 77.5- 0.3 4.7---- 0.0------------
1956-11-08 -0.4 2.1 -1.7 -0.2 89.8- 4.3 2.3---- 0.0-- 2---------
1956-11-07 0.4 1.6 0.0 -1.0100.0- 8.0 0.0---- 4.0-- 5---------
1956-11-06 1.5 4.6 0.0 -1.0 93.3- 7.7 2.3---- 12.7------------
1956-11-05 4.6 7.3 2.2 2.2 84.0- 5.7 3.7---- 0.6------------
1956-11-04 1.6 4.5 -2.5 -5.7 90.8- 7.7 2.7---- 1.2------------
1956-11-03 0.4 3.1 -2.5 -7.2 81.0- 5.3 0.3---- 0.0------------
1956-11-02 0.3 1.3 -1.4 -1.4100.0- 7.7 0.7---- 0.3------------
1956-11-01 -0.9 3.6 -8.2-12.0 75.5- 4.3 0.7---- 0.4------------
1956-10-31 -4.3 0.0 -5.8 -6.5 85.8- 2.3 2.3---- 0.0------------
1956-10-30 1.4 4.2 -0.1 3.3 99.5- 8.0 2.3---- 2.0------------
1956-10-29 4.4 7.8 3.6 4.5100.0- 8.0 1.0---- 13.7------------
1956-10-28 7.6 9.0 6.2 6.3100.0- 8.0 1.7---- 19.1------------
1956-10-27 7.6 8.9 4.8 4.5100.0- 8.0 3.0---- 19.7------------
1956-10-26 6.8 9.0 5.7 5.2 89.3- 7.7 0.3---- 8.4------------
1956-10-25 10.2 14.5 8.6 7.1 84.3- 7.0 2.0---- 0.8------------
1956-10-24 11.9 17.9 8.8 6.0 80.5- 3.3 3.0---- 0.0------------
1956-10-23 10.6 14.7 8.7 6.4 87.3- 2.0 1.7---- 0.0------------
1956-10-22 11.1 14.9 7.9 5.9 92.0- 3.7 1.3---- 0.0------------
1956-10-21 12.9 17.4 9.8 5.2 88.3- 1.7 2.0---- 0.0------------
1956-10-20 11.4 15.2 6.2 2.6 91.5- 7.0 1.0---- 0.0------------
1956-10-19 11.3 14.4 9.3 10.5 93.5- 7.7 2.0---- 0.0------------
1956-10-18 11.3 11.9 8.1 6.4 99.3- 7.7 2.3---- 5.1------------
1956-10-17 9.0 16.5 3.6 1.0 77.0- 2.0 2.3---- 0.1------------
1956-10-16 8.1 13.4 3.3 -1.4 71.3- 0.0 1.7---- 0.0------------
1956-10-15 6.8 12.7 2.8 -2.8 79.3- 0.0 0.7---- 0.0------------
1956-10-14 9.8 13.7 7.3 9.4 84.3- 4.0 4.7---- 1.7------------
1956-10-13 10.7 12.5 8.2 6.4 83.5- 7.3 6.0---- 0.2------------
1956-10-12 9.6 13.0 6.7 6.0 86.3- 3.7 3.0---- 0.0------------
1956-10-11 8.1 12.0 1.9 -4.0 80.0- 3.0 2.0---- 0.0------------
1956-10-10 4.3 10.0 1.4 -2.7 66.5- 1.3 0.7---- 0.0------------
1956-10-09 7.4 8.8 4.6 3.1 97.8- 8.0 2.7---- 1.8------------
1956-10-08 4.6 9.4 -0.2 -2.8 80.3- 5.7 2.0---- 2.1------------
1956-10-07 5.2 10.0 3.7 3.6 88.5- 3.7 3.7---- 0.0------------
1956-10-06 5.5 8.7 4.3 2.6 90.8- 7.0 2.3---- 0.9------------
1956-10-05 8.5 11.7 7.2 6.1 82.0- 7.3 2.3---- 1.3------------
1956-10-04 10.7 15.5 8.2 4.3 89.5- 6.0 2.0---- 4.5------------
1956-10-03 12.2 17.9 9.1 13.3 92.3- 4.0 2.7---- 0.6------------
1956-10-02 18.1 24.0 13.1 8.9 77.3- 1.3 2.7---- 0.8------------
1956-10-01 16.4 23.7 12.2 9.6 84.5- 2.7 1.7---- 0.0------------
1956-09-30 14.1 19.0 8.3 3.0 78.5- 2.7 1.3---- 0.0------------
1956-09-29 13.8 17.3 12.2 8.6 93.0- 6.0 2.0---- 0.0------------
1956-09-28 15.4 18.8 12.5 11.7 82.3- 5.0 4.7---- 0.0------------
1956-09-27 16.7 21.6 12.7 10.5 79.5- 5.7 3.3---- 0.3------------
1956-09-26 16.5 23.4 11.1 8.7 61.5- 0.0 2.3---- 0.5------------
1956-09-25 15.1 22.3 5.9 3.8 65.0- 0.0 2.7---- 0.0------------
1956-09-24 11.6 17.9 6.9 5.3 67.3- 0.0 6.0---- 0.0------------
1956-09-23 13.5 19.9 8.6 7.0 75.8- 0.0 5.3---- 0.0------------
1956-09-22 14.3 20.9 9.2 6.6 73.0- 0.0 3.3---- 0.0------------
1956-09-21 14.0 19.0 8.9 2.9 67.3- 0.0 1.0---- 0.0------------
1956-09-20 12.1 17.9 5.2 1.1 71.0- 3.7 1.0---- 0.0------------
1956-09-19 10.8 16.6 6.9 1.0 75.5- 2.7 1.7---- 0.0------------
1956-09-18 8.9 14.6 5.6 2.0 87.0- 2.3 0.3---- 0.0------------
1956-09-17 9.6 11.9 8.5 7.2 99.5- 8.0 3.0---- 14.9------------
1956-09-16 10.9 16.3 4.7 0.0 81.8- 4.7 1.3---- 1.8------------
1956-09-15 10.5 15.9 8.2 4.4 85.0- 4.3 2.0---- 0.0------------
1956-09-14 10.6 16.2 7.2 4.9 83.3- 2.3 0.7---- 0.0------------
1956-09-13 10.0 16.0 7.4 5.8 88.8- 5.7 5.0---- 1.1------------
1956-09-12 9.7 16.4 7.9 12.0 94.3- 3.0 3.7---- 5.2------------
1956-09-11 15.4 19.4 12.8 11.7 90.5- 7.3 2.0---- 5.6------------
298.6 ms

 

Źródłem pochodzenia danych jest Instytut Meteorologii i Gospodarki Wodnej – Państwowy Instytut Badawczy. Dane Instytutu Meteorologii i Gospodarki Wodnej – Państwowego Instytutu Badawczego zostały przetworzone.

Dane źródłowe można odnaleźć na stronie https://dane.imgw.pl